OCTPS48 EGVN-EGVN

Flight info

Callsign OCTPS48
Flight time N/A
Altitude 3000
Route LFA2 EGDR LFA 3 EGHQ
Aircraft A400/H-SGLRW/LB1

Departure

Time 2026-04-26 16:31
Airport RAF Brize Norton (EGVN)

Arrival

Time N/A
Airport RAF Brize Norton (EGVN)
Time Latitude Longitude Altitude Speed Heading
2026-04-26 16:23 51.75844 -1.57213 275 ft 0 kts 288°
2026-04-26 16:25 51.75860 -1.57258 276 ft 11 kts 315°
2026-04-26 16:25 51.75924 -1.57353 275 ft 17 kts 290°
2026-04-26 16:26 51.75889 -1.57520 273 ft 20 kts 204°
2026-04-26 16:26 51.75874 -1.57530 273 ft 20 kts 198°
2026-04-26 16:26 51.75737 -1.57603 273 ft 19 kts 192°
2026-04-26 16:26 51.75593 -1.57678 273 ft 24 kts 201°
2026-04-26 16:27 51.75434 -1.57805 273 ft 28 kts 208°
2026-04-26 16:27 51.75252 -1.57961 274 ft 31 kts 208°
2026-04-26 16:27 51.75056 -1.58128 275 ft 33 kts 207°
2026-04-26 16:27 51.74880 -1.58279 273 ft 34 kts 207°
2026-04-26 16:28 51.74708 -1.58429 274 ft 33 kts 213°
2026-04-26 16:28 51.74615 -1.58703 275 ft 28 kts 253°
2026-04-26 16:28 51.74561 -1.59001 275 ft 27 kts 255°
2026-04-26 16:28 51.74510 -1.59276 273 ft 25 kts 254°
2026-04-26 16:29 51.74461 -1.59539 278 ft 24 kts 252°
2026-04-26 16:29 51.74427 -1.59782 273 ft 23 kts 275°
2026-04-26 16:29 51.74494 -1.60009 273 ft 22 kts 315°
2026-04-26 16:29 51.74633 -1.60091 274 ft 21 kts 12°
2026-04-26 16:30 51.74704 -1.59908 272 ft 25 kts 72°
2026-04-26 16:30 51.74861 -1.59056 275 ft 135 kts 74°
2026-04-26 16:30 51.75147 -1.57500 393 ft 190 kts 73°
2026-04-26 16:30 51.75579 -1.55291 847 ft 221 kts 67°
2026-04-26 16:31 51.76491 -1.53113 1377 ft 246 kts 49°
2026-04-26 16:31 51.78047 -1.51853 1738 ft 263 kts
2026-04-26 16:31 51.79754 -1.52681 1857 ft 258 kts 320°
2026-04-26 16:31 51.80441 -1.54011 1811 ft 242 kts 292°
2026-04-26 16:32 51.80894 -1.56647 1730 ft 227 kts 276°
2026-04-26 16:32 51.81051 -1.57962 1713 ft 227 kts 277°
2026-04-26 16:32 51.81472 -1.61291 1641 ft 226 kts 277°
2026-04-26 16:32 51.81729 -1.63786 1516 ft 225 kts 275°
2026-04-26 16:33 51.81936 -1.66288 1392 ft 225 kts 272°
2026-04-26 16:33 51.82004 -1.68807 1343 ft 223 kts 263°
2026-04-26 16:33 51.81722 -1.71253 1268 ft 221 kts 248°
2026-04-26 16:33 51.81198 -1.73720 1266 ft 243 kts 249°
2026-04-26 16:34 51.80632 -1.76143 1263 ft 252 kts 247°
2026-04-26 16:34 51.79987 -1.78788 1237 ft 254 kts 247°
2026-04-26 16:34 51.79326 -1.81438 1189 ft 254 kts 246°
2026-04-26 16:34 51.78654 -1.84074 1180 ft 254 kts 246°
2026-04-26 16:35 51.78010 -1.86547 773 ft 251 kts 246°
2026-04-26 16:35 51.77785 -1.87396 471 ft 0 kts 245°
2026-04-26 16:35 51.77380 -1.88800 751 ft 239 kts 244°
2026-04-26 16:36 51.76676 -1.91188 1044 ft 240 kts 243°
2026-04-26 16:36 51.75885 -1.93655 1267 ft 251 kts 240°
2026-04-26 16:36 51.75023 -1.96126 1385 ft 253 kts 238°
2026-04-26 16:36 51.73981 -1.98382 1416 ft 253 kts 226°
2026-04-26 16:37 51.72750 -2.00404 1282 ft 252 kts 224°
2026-04-26 16:37 51.71533 -2.02418 1030 ft 250 kts 224°
2026-04-26 16:37 51.70288 -2.04379 923 ft 250 kts 220°
2026-04-26 16:37 51.69374 -2.05504 903 ft 249 kts 213°
2026-04-26 16:38 51.67197 -2.06485 860 ft 243 kts 179°
2026-04-26 16:38 51.65605 -2.07371 801 ft 246 kts 204°
2026-04-26 16:38 51.64034 -2.08523 839 ft 247 kts 202°
2026-04-26 16:38 51.62464 -2.09622 837 ft 247 kts 202°
2026-04-26 16:39 51.60868 -2.10704 840 ft 248 kts 202°
2026-04-26 16:39 51.59301 -2.11743 846 ft 248 kts 200°
2026-04-26 16:39 51.57664 -2.12653 805 ft 246 kts 212°
2026-04-26 16:39 51.56491 -2.14659 862 ft 250 kts 228°
2026-04-26 16:40 51.55345 -2.16759 917 ft 251 kts 228°
2026-04-26 16:40 51.54207 -2.18850 1031 ft 252 kts 227°
2026-04-26 16:40 51.53047 -2.20946 1056 ft 251 kts 227°
2026-04-26 16:40 51.51828 -2.22905 1018 ft 250 kts 218°
2026-04-26 16:41 51.50391 -2.24504 1031 ft 250 kts 209°
2026-04-26 16:41 51.48889 -2.25928 1125 ft 251 kts 208°
2026-04-26 16:41 51.47444 -2.27487 1182 ft 252 kts 221°
2026-04-26 16:41 51.46698 -2.28969 1218 ft 254 kts 238°
2026-04-26 16:42 51.45794 -2.31398 1236 ft 254 kts 237°
2026-04-26 16:42 51.44862 -2.33805 1277 ft 254 kts 238°
2026-04-26 16:42 51.43938 -2.36224 1405 ft 254 kts 237°
2026-04-26 16:42 51.42993 -2.38599 1435 ft 253 kts 234°
2026-04-26 16:43 51.42026 -2.40920 1401 ft 255 kts 234°
2026-04-26 16:43 51.41019 -2.43319 673 ft 263 kts 234°
2026-04-26 16:43 51.40028 -2.45707 646 ft 254 kts 234°
2026-04-26 16:43 51.38950 -2.47859 642 ft 251 kts 218°
2026-04-26 16:44 51.37507 -2.49343 729 ft 251 kts 211°
2026-04-26 16:44 51.36134 -2.51069 912 ft 252 kts 221°
2026-04-26 16:44 51.34802 -2.52862 897 ft 250 kts 213°
2026-04-26 16:44 51.33221 -2.53937 842 ft 248 kts 194°
2026-04-26 16:45 51.31613 -2.54965 951 ft 251 kts 210°
2026-04-26 16:45 51.30610 -2.57181 1143 ft 256 kts 257°
2026-04-26 16:45 51.30758 -2.60000 1067 ft 257 kts 278°
2026-04-26 16:45 51.30769 -2.62722 976 ft 254 kts 253°
2026-04-26 16:46 51.31163 -2.65278 857 ft 239 kts 305°
2026-04-26 16:46 51.32142 -2.67517 942 ft 252 kts 303°
2026-04-26 16:46 51.33238 -2.69716 937 ft 255 kts 322°
2026-04-26 16:46 51.34894 -2.70657 1048 ft 259 kts 353°
2026-04-26 16:47 51.36690 -2.71048 1055 ft 260 kts 353°
2026-04-26 16:47 51.38456 -2.71598 1020 ft 258 kts 335°
2026-04-26 16:47 51.39747 -2.73540 1124 ft 258 kts 302°
2026-04-26 16:47 51.40742 -2.75969 1287 ft 262 kts 302°
2026-04-26 16:48 51.41666 -2.78459 1345 ft 259 kts 299°
2026-04-26 16:48 51.42534 -2.80976 1365 ft 258 kts 298°
2026-04-26 16:48 51.43372 -2.83469 1337 ft 257 kts 297°
2026-04-26 16:48 51.44218 -2.86045 1282 ft 257 kts 296°
2026-04-26 16:49 51.45035 -2.88591 1187 ft 257 kts 296°
2026-04-26 16:49 51.45837 -2.91150 1083 ft 257 kts 296°
2026-04-26 16:49 51.46400 -2.93806 933 ft 254 kts 269°
2026-04-26 16:49 51.45787 -2.96394 826 ft 252 kts 227°
2026-04-26 16:50 51.44364 -2.97988 795 ft 252 kts 205°
2026-04-26 16:50 51.42822 -2.99232 778 ft 251 kts 207°
2026-04-26 16:50 51.41279 -3.00614 911 ft 251 kts 208°
2026-04-26 16:50 51.39804 -3.01972 721 ft 243 kts 209°
2026-04-26 16:51 51.38324 -3.03339 689 ft 249 kts 209°
2026-04-26 16:51 51.36812 -3.04728 689 ft 251 kts 209°
2026-04-26 16:51 51.35294 -3.06124 689 ft 252 kts 208°
2026-04-26 16:51 51.33926 -3.07787 686 ft 253 kts 229°
2026-04-26 16:52 51.33195 -3.10157 690 ft 255 kts 255°
2026-04-26 16:52 51.32992 -3.12064 694 ft 256 kts 262°
2026-04-26 16:52 51.32782 -3.15810 692 ft 256 kts 264°
2026-04-26 16:52 51.32648 -3.18644 685 ft 255 kts 264°
2026-04-26 16:53 51.32515 -3.21472 686 ft 255 kts 265°
2026-04-26 16:53 51.32385 -3.24306 685 ft 256 kts 265°
2026-04-26 16:53 51.32251 -3.27141 683 ft 256 kts 265°
2026-04-26 16:53 51.32114 -3.29977 680 ft 256 kts 265°
2026-04-26 16:54 51.31977 -3.32818 682 ft 256 kts 265°
2026-04-26 16:54 51.31843 -3.35648 682 ft 256 kts 265°
2026-04-26 16:54 51.31707 -3.38479 686 ft 257 kts 264°
2026-04-26 16:54 51.31569 -3.41340 684 ft 257 kts 265°
2026-04-26 16:55 51.31424 -3.44188 684 ft 257 kts 264°
2026-04-26 16:55 51.31276 -3.47029 680 ft 257 kts 264°
2026-04-26 16:55 51.31131 -3.49878 686 ft 257 kts 264°
2026-04-26 16:55 51.30842 -3.52686 685 ft 258 kts 256°
2026-04-26 16:56 51.29965 -3.58252 687 ft 258 kts 255°
2026-04-26 16:56 51.29551 -3.61038 681 ft 257 kts 258°
2026-04-26 16:56 51.29238 -3.63846 683 ft 256 kts 259°
2026-04-26 16:57 51.28941 -3.66638 683 ft 256 kts 260°
2026-04-26 16:57 51.28644 -3.69445 686 ft 256 kts 259°
2026-04-26 16:57 51.28067 -3.74886 687 ft 257 kts 260°
2026-04-26 16:58 51.27772 -3.77695 678 ft 256 kts 259°
2026-04-26 16:58 51.27586 -3.79556 682 ft 257 kts 259°
2026-04-26 16:58 51.26922 -3.85916 680 ft 254 kts 259°
2026-04-26 16:59 51.26621 -3.88632 679 ft 254 kts 259°
2026-04-26 16:59 51.26022 -3.94068 681 ft 254 kts 259°
2026-04-26 17:00 51.25416 -3.99587 681 ft 255 kts 259°
2026-04-26 17:00 51.24706 -4.05098 683 ft 253 kts 253°
2026-04-26 17:00 51.24175 -4.07773 683 ft 253 kts 252°
2026-04-26 17:01 51.23626 -4.10434 683 ft 253 kts 251°
2026-04-26 17:01 51.23074 -4.13094 680 ft 253 kts 251°
2026-04-26 17:01 51.22521 -4.15752 680 ft 253 kts 251°
2026-04-26 17:01 51.21942 -4.18393 679 ft 253 kts 247°
2026-04-26 17:02 51.21153 -4.20817 679 ft 252 kts 240°
2026-04-26 17:02 51.20267 -4.23223 681 ft 252 kts 239°
2026-04-26 17:02 51.19370 -4.25626 678 ft 252 kts 239°
2026-04-26 17:02 51.18327 -4.27855 655 ft 251 kts 220°
2026-04-26 17:03 51.16695 -4.28814 650 ft 256 kts 189°
2026-04-26 17:03 51.14905 -4.28890 678 ft 259 kts 175°
2026-04-26 17:03 51.13131 -4.28386 694 ft 258 kts 168°
2026-04-26 17:03 51.11614 -4.27890 1746 ft 178 kts 167°
2026-04-26 17:04 51.10472 -4.27548 3315 ft 162 kts 168°
2026-04-26 17:04 51.09273 -4.27117 4064 ft 186 kts 156°
2026-04-26 17:04 51.08522 -4.25728 4148 ft 164 kts 98°
2026-04-26 17:04 51.08576 -4.23957 4012 ft 155 kts 84°
2026-04-26 17:05 51.08697 -4.22315 3883 ft 147 kts 84°
2026-04-26 17:05 51.08741 -4.20696 3719 ft 146 kts 90°
2026-04-26 17:05 51.08725 -4.19088 3512 ft 145 kts 92°
2026-04-26 17:05 51.08719 -4.17482 2313 ft 147 kts 91°
2026-04-26 17:06 51.08723 -4.15849 1113 ft 148 kts 89°
2026-04-26 17:06 51.08726 -4.14352 1881 ft 124 kts 91°
2026-04-26 17:06 51.08761 -4.13013 2771 ft 125 kts 68°
2026-04-26 17:06 51.09524 -4.12126 3193 ft 157 kts 18°
2026-04-26 17:07 51.10719 -4.12024 3374 ft 184 kts 357°
2026-04-26 17:07 51.12008 -4.12317 3484 ft 191 kts 337°
2026-04-26 17:07 51.12869 -4.13828 3545 ft 190 kts 284°
2026-04-26 17:07 51.12892 -4.15900 3566 ft 191 kts 268°
2026-04-26 17:08 51.12892 -4.18051 3532 ft 192 kts 270°
2026-04-26 17:08 51.12901 -4.20144 3498 ft 192 kts 269°
2026-04-26 17:08 51.12915 -4.22312 3527 ft 193 kts 270°
2026-04-26 17:08 51.12935 -4.24443 3545 ft 193 kts 270°
2026-04-26 17:09 51.12570 -4.26365 3428 ft 186 kts 218°
2026-04-26 17:09 51.11792 -4.26852 3281 ft 183 kts 180°
2026-04-26 17:09 51.10393 -4.25545 3078 ft 184 kts 132°
2026-04-26 17:09 51.09590 -4.24124 2978 ft 158 kts 132°
2026-04-26 17:10 51.09006 -4.22822 2830 ft 138 kts 115°
2026-04-26 17:10 51.08845 -4.21357 2602 ft 135 kts 95°
2026-04-26 17:10 51.08766 -4.19792 1738 ft 145 kts 96°
2026-04-26 17:10 51.08689 -4.18201 921 ft 143 kts 92°
2026-04-26 17:11 51.08705 -4.16634 295 ft 144 kts 88°
2026-04-26 17:11 51.08709 -4.14929 628 ft 166 kts 94°
2026-04-26 17:11 51.08317 -4.12993 838 ft 202 kts 114°
2026-04-26 17:11 51.07448 -4.11106 1230 ft 222 kts 139°
2026-04-26 17:12 51.04394 -4.10063 2132 ft 241 kts 182°
2026-04-26 17:12 51.02634 -4.10235 2208 ft 269 kts 182°
2026-04-26 17:13 50.98719 -4.10635 1769 ft 282 kts 182°
2026-04-26 17:13 50.96826 -4.10823 1502 ft 263 kts 182°
2026-04-26 17:13 50.95032 -4.10996 1244 ft 255 kts 182°